Time;durP1;ratioP1;P1;durP2;ratioP2;P2;SDS_P1;SDS_P2;PMS_P1;PMS_P2;Temp;Humidity;BMP_temperature;BMP_pressure;BME280_temperature;BME280_humidity;BME280_pressure;Samples;Min_cycle;Max_cycle;Signal;HPM_P1;HPM_P2
2023/06/26 08:11:14;;;;;;;6.60;4.30;;;;;;;;;;6294246;22;20031;-90
2023/06/26 08:13:40;;;;;;;5.82;5.00;;;;;;;;;;6308794;22;20319;-90
2023/06/26 08:16:05;;;;;;;5.43;4.90;;;;;;;;;;6308440;22;20022;-89
2023/06/26 08:18:31;;;;;;;6.93;4.55;;;;;;;;;;6307165;22;20007;-89
2023/06/26 08:20:56;;;;;;;5.45;4.72;;;;;;;;;;6281186;22;20082;-89
2023/06/26 08:23:22;;;;;;;5.75;4.40;;;;;;;;;;6308621;22;20003;-89
2023/06/26 08:25:47;;;;;;;4.65;4.15;;;;;;;;;;6308327;22;20018;-89
2023/06/26 08:28:13;;;;;;;4.85;4.28;;;;;;;;;;6308371;22;20332;-89
2023/06/26 08:30:38;;;;;;;5.50;4.45;;;;;;;;;;6308481;22;19999;-89
2023/06/26 08:33:04;;;;;;;5.38;4.80;;;;;;;;;;6308848;22;20125;-96
2023/06/26 08:35:29;;;;;;;7.32;5.93;;;;;;;;;;6281896;22;19999;-89
2023/06/26 08:37:54;;;;;;;7.22;4.88;;;;;;;;;;6308430;22;20006;-90
2023/06/26 08:40:21;;;;;;;5.40;4.88;;;;;;;;;;6308666;22;20003;-88
2023/06/26 08:42:47;;;;;;;6.10;4.75;;;;;;;;;;6308331;22;20417;-88
2023/06/26 08:45:12;;;;;;;7.50;5.00;;;;;;;;;;6308319;22;20056;-87
2023/06/26 08:47:39;;;;;;;5.95;4.70;;;;;;;;;;6308331;22;20079;-88
2023/06/26 08:50:09;;;;;;;7.25;5.10;;;;;;;;;;6308298;22;20031;-88
2023/06/26 08:52:39;;;;;;;7.10;4.88;;;;;;;;;;6308405;22;20003;-89
2023/06/26 08:55:09;;;;;;;6.25;4.60;;;;;;;;;;6307827;22;20003;-88
2023/06/26 08:57:36;;;;;;;6.05;5.03;;;;;;;;;;6280962;22;20342;-88
2023/06/26 09:00:03;;;;;;;5.35;4.85;;;;;;;;;;6308120;22;20078;-88
2023/06/26 09:02:28;;;;;;;5.57;4.95;;;;;;;;;;6280913;22;20042;-88
2023/06/26 09:04:54;;;;;;;5.20;4.25;;;;;;;;;;6308136;22;20338;-88
2023/06/26 09:07:20;;;;;;;5.88;4.55;;;;;;;;;;6307946;22;20466;-88
2023/06/26 09:09:46;;;;;;;5.53;5.03;;;;;;;;;;6308041;22;20022;-88
2023/06/26 09:12:11;;;;;;;6.85;5.30;;;;;;;;;;6308082;22;20009;-88
2023/06/26 09:14:38;;;;;;;6.78;4.85;;;;;;;;;;6308905;22;20023;-91
2023/06/26 09:17:03;;;;;;;5.95;5.32;;;;;;;;;;6308786;22;20303;-88
2023/06/26 09:19:29;;;;;;;7.72;5.22;;;;;;;;;;6308437;22;20034;-88
2023/06/26 09:21:55;;;;;;;6.32;4.95;;;;;;;;;;6308032;22;20295;-89
2023/06/26 09:24:22;;;;;;;7.25;5.32;;;;;;;;;;6308001;22;20076;-89
2023/06/26 09:26:47;;;;;;;10.30;5.32;;;;;;;;;;6280336;22;20034;-89
2023/06/26 09:29:14;;;;;;;8.60;5.57;;;;;;;;;;6308150;22;20403;-91
2023/06/26 09:31:41;;;;;;;6.53;5.30;;;;;;;;;;6308074;22;20003;-88
2023/06/26 09:34:06;;;;;;;5.55;5.05;;;;;;;;;;6280766;22;20006;-91
2023/06/26 09:36:33;;;;;;;6.72;5.18;;;;;;;;;;6307978;22;19999;-88
2023/06/26 09:39:04;;;;;;;5.30;4.80;;;;;;;;;;6307920;22;20030;-88
2023/06/26 09:41:30;;;;;;;7.25;5.22;;;;;;;;;;6280447;22;19999;-88
2023/06/26 09:44:02;;;;;;;6.53;4.80;;;;;;;;;;6308137;22;20004;-89
2023/06/26 09:46:28;;;;;;;5.40;4.60;;;;;;;;;;6255148;22;20023;-89
2023/06/26 09:49:06;;;;;;;5.47;4.85;;;;;;;;;;6308061;22;20080;-90
2023/06/26 09:51:32;;;;;;;8.27;4.50;;;;;;;;;;6308411;22;20007;-90
2023/06/26 09:53:59;;;;;;;6.30;4.32;;;;;;;;;;6308341;22;19999;-89
2023/06/26 09:56:24;;;;;;;6.32;4.60;;;;;;;;;;6281435;22;20090;-91
2023/06/26 09:58:50;;;;;;;5.15;4.45;;;;;;;;;;6280693;22;19999;-90
2023/06/26 10:01:18;;;;;;;8.07;4.85;;;;;;;;;;6306231;22;20010;-90
2023/06/26 10:03:44;;;;;;;5.22;3.85;;;;;;;;;;6280421;22;20011;-89
2023/06/26 10:06:12;;;;;;;6.60;4.10;;;;;;;;;;6279998;22;20011;-90
2023/06/26 10:08:39;;;;;;;4.88;4.35;;;;;;;;;;6280590;22;19999;-89
2023/06/26 10:11:07;;;;;;;6.82;4.30;;;;;;;;;;6280473;22;20019;-89
2023/06/26 10:13:38;;;;;;;5.88;4.43;;;;;;;;;;6281450;22;20007;-88
2023/06/26 10:16:07;;;;;;;4.55;4.13;;;;;;;;;;6307938;22;20006;-89
2023/06/26 10:18:33;;;;;;;6.07;4.47;;;;;;;;;;6307676;22;20014;-85
2023/06/26 10:21:01;;;;;;;5.07;4.63;;;;;;;;;;6308052;22;20007;-85
2023/06/26 10:23:28;;;;;;;4.60;4.20;;;;;;;;;;6307706;22;20033;-86
2023/06/26 10:25:57;;;;;;;5.60;5.10;;;;;;;;;;6308268;22;20081;-90
2023/06/26 10:28:23;;;;;;;7.03;4.70;;;;;;;;;;6308816;22;19999;-90
2023/06/26 10:30:51;;;;;;;5.45;4.97;;;;;;;;;;6314909;22;20035;-90
2023/06/26 10:33:18;;;;;;;8.90;4.35;;;;;;;;;;6316423;22;20007;-92
2023/06/26 10:35:47;;;;;;;5.15;4.55;;;;;;;;;;6307357;22;20007;-91
2023/06/26 10:38:13;;;;;;;5.05;4.63;;;;;;;;;;6310365;22;20032;-83
2023/06/26 10:40:44;;;;;;;5.25;4.72;;;;;;;;;;6309767;22;20066;-84
2023/06/26 10:43:11;;;;;;;8.68;4.90;;;;;;;;;;6309427;22;20003;-86
2023/06/26 10:45:43;;;;;;;5.93;4.43;;;;;;;;;;6309614;22;20014;-84
2023/06/26 10:48:09;;;;;;;9.25;4.45;;;;;;;;;;6310282;22;20082;-86
2023/06/26 10:50:35;;;;;;;5.68;5.00;;;;;;;;;;6310092;22;20034;-84
2023/06/26 10:53:22;;;;;;;6.70;4.85;;;;;;;;;;6310417;22;20060;-87
2023/06/26 10:56:05;;;;;;;6.78;4.85;;;;;;;;;;6310411;22;20318;-89
2023/06/26 10:59:12;;;;;;;5.88;4.60;;;;;;;;;;6310109;22;20037;-86
2023/06/26 11:01:42;;;;;;;5.63;4.28;;;;;;;;;;6168189;23;20013;-88
2023/06/26 11:04:14;;;;;;;9.10;4.32;;;;;;;;;;6294629;22;20023;-89
2023/06/26 11:06:45;;;;;;;8.45;4.90;;;;;;;;;;6318393;22;20019;-88
2023/06/26 11:09:54;;;;;;;6.45;4.70;;;;;;;;;;6316573;22;19999;-86
2023/06/26 11:12:41;;;;;;;9.38;4.45;;;;;;;;;;6256935;22;20077;-86
2023/06/26 11:15:18;;;;;;;7.07;5.10;;;;;;;;;;6276896;22;20014;-86
2023/06/26 11:17:44;;;;;;;5.35;4.82;;;;;;;;;;6278648;22;20000;-87
2023/06/26 11:20:12;;;;;;;5.82;5.10;;;;;;;;;;6278394;22;20027;-87
2023/06/26 11:22:39;;;;;;;5.13;4.60;;;;;;;;;;6278452;22;20427;-87
2023/06/26 11:25:07;;;;;;;5.55;5.05;;;;;;;;;;6278480;22;20004;-87
2023/06/26 11:27:42;;;;;;;5.38;4.78;;;;;;;;;;6251735;22;19996;-87
2023/06/26 11:30:09;;;;;;;7.60;4.85;;;;;;;;;;6278988;22;20004;-88
2023/06/26 11:32:36;;;;;;;6.13;4.90;;;;;;;;;;6279406;22;19999;-89
2023/06/26 11:35:04;;;;;;;11.55;5.50;;;;;;;;;;6278000;22;20008;-88
2023/06/26 11:37:31;;;;;;;8.82;5.40;;;;;;;;;;6250568;22;20000;-88
2023/06/26 11:39:56;;;;;;;12.20;5.18;;;;;;;;;;6278175;22;20082;-88
2023/06/26 11:42:21;;;;;;;6.18;5.47;;;;;;;;;;6278059;22;20454;-88
2023/06/26 11:44:47;;;;;;;7.45;5.18;;;;;;;;;;6277739;22;20023;-89
2023/06/26 11:47:14;;;;;;;8.18;5.25;;;;;;;;;;6278014;22;20010;-89
2023/06/26 16:36:32;;;;;;;4.68;4.20;;;;;;;;;;6294170;22;20007;-84
2023/06/26 16:38:57;;;;;;;5.22;3.95;;;;;;;;;;6309897;22;20029;-84
2023/06/26 16:41:23;;;;;;;5.80;4.50;;;;;;;;;;6308745;22;20003;-84
2023/06/26 16:43:49;;;;;;;4.90;4.40;;;;;;;;;;6312633;22;20422;-84
2023/06/26 16:46:15;;;;;;;5.05;4.55;;;;;;;;;;6308273;22;20003;-84
2023/06/26 16:48:40;;;;;;;4.68;3.92;;;;;;;;;;6308363;22;20387;-84
2023/06/26 16:51:06;;;;;;;5.95;4.75;;;;;;;;;;6308484;22;20074;-84
2023/06/26 16:53:31;;;;;;;4.80;4.40;;;;;;;;;;6308244;22;20003;-83
2023/06/26 16:55:57;;;;;;;5.50;4.47;;;;;;;;;;6308328;22;20068;-83
2023/06/26 16:58:22;;;;;;;5.45;4.88;;;;;;;;;;6308189;22;20037;-83
2023/06/26 17:00:48;;;;;;;6.50;4.88;;;;;;;;;;6308603;22;20003;-87
2023/06/26 17:03:14;;;;;;;5.47;4.30;;;;;;;;;;6308204;22;20406;-84
2023/06/26 17:05:39;;;;;;;5.28;4.78;;;;;;;;;;6308342;22;20479;-83
2023/06/26 17:08:07;;;;;;;4.68;4.28;;;;;;;;;;6308391;22;20000;-83
2023/06/26 17:10:33;;;;;;;5.28;4.75;;;;;;;;;;6308582;22;20052;-83
2023/06/26 17:12:58;;;;;;;6.88;4.45;;;;;;;;;;6307867;22;20414;-83
2023/06/26 17:15:23;;;;;;;5.20;4.28;;;;;;;;;;6308218;22;20007;-84
2023/06/26 17:17:49;;;;;;;5.82;4.30;;;;;;;;;;6308226;22;20079;-84
2023/06/26 17:20:15;;;;;;;4.78;4.22;;;;;;;;;;6308145;22;19999;-83
2023/06/26 17:22:43;;;;;;;5.55;4.43;;;;;;;;;;6308108;22;19995;-84
2023/06/26 17:25:11;;;;;;;6.65;4.55;;;;;;;;;;6308103;22;19999;-83
2023/06/26 17:27:37;;;;;;;5.27;4.13;;;;;;;;;;6280482;22;20007;-82
2023/06/26 17:30:03;;;;;;;4.75;4.32;;;;;;;;;;6308299;22;20406;-83
2023/06/26 17:32:29;;;;;;;6.65;4.97;;;;;;;;;;6307912;22;20080;-83
2023/06/26 17:34:54;;;;;;;6.47;4.60;;;;;;;;;;6308189;22;20003;-83
2023/06/26 17:37:23;;;;;;;5.72;4.50;;;;;;;;;;6306156;22;20068;-82
2023/06/26 17:39:56;;;;;;;5.10;4.38;;;;;;;;;;6308064;22;20004;-82
2023/06/26 17:42:22;;;;;;;5.82;4.65;;;;;;;;;;6308393;22;20003;-81
2023/06/26 17:44:48;;;;;;;4.43;4.03;;;;;;;;;;6308291;22;20449;-82
2023/06/26 17:47:13;;;;;;;4.97;4.43;;;;;;;;;;6308193;22;19999;-82
2023/06/26 17:49:39;;;;;;;6.15;4.57;;;;;;;;;;6307808;22;20006;-82
2023/06/26 17:52:05;;;;;;;5.25;4.78;;;;;;;;;;6307829;22;20018;-83
2023/06/26 17:54:31;;;;;;;5.15;4.65;;;;;;;;;;6308141;22;20330;-81
2023/06/26 17:56:56;;;;;;;9.88;6.10;;;;;;;;;;6308275;22;20007;-81
2023/06/26 17:59:22;;;;;;;6.30;5.68;;;;;;;;;;6307844;22;20034;-82
2023/06/26 18:01:47;;;;;;;5.97;4.90;;;;;;;;;;6307716;22;20011;-81
2023/06/26 18:04:13;;;;;;;6.47;4.80;;;;;;;;;;6307942;22;20010;-80
2023/06/26 18:06:38;;;;;;;5.68;5.05;;;;;;;;;;6307766;22;20003;-80
2023/06/26 18:09:04;;;;;;;8.07;5.85;;;;;;;;;;6307776;22;20353;-81
2023/06/26 18:11:35;;;;;;;7.85;5.10;;;;;;;;;;6307764;22;20006;-81
2023/06/26 18:14:01;;;;;;;5.68;5.00;;;;;;;;;;6308116;22;20003;-80
2023/06/26 18:16:28;;;;;;;5.88;4.93;;;;;;;;;;6307700;22;20086;-80
2023/06/26 18:18:53;;;;;;;6.05;4.88;;;;;;;;;;6307930;22;20003;-80
2023/06/26 18:21:19;;;;;;;5.75;5.10;;;;;;;;;;6307450;22;20014;-80
2023/06/26 18:23:47;;;;;;;5.07;4.68;;;;;;;;;;6307392;22;20010;-80
2023/06/26 18:26:13;;;;;;;7.50;5.03;;;;;;;;;;6308165;22;20008;-81
2023/06/26 18:28:38;;;;;;;6.47;5.75;;;;;;;;;;6308178;22;20074;-81
2023/06/26 18:31:07;;;;;;;5.60;4.68;;;;;;;;;;6307776;22;20030;-81
2023/06/26 18:33:33;;;;;;;6.53;5.18;;;;;;;;;;6307746;22;20010;-81
2023/06/26 18:35:58;;;;;;;8.02;5.25;;;;;;;;;;6307502;22;20019;-81
2023/06/26 18:38:24;;;;;;;12.32;5.60;;;;;;;;;;6308719;22;20006;-82
2023/06/26 18:40:50;;;;;;;6.15;4.68;;;;;;;;;;6308061;22;20403;-81
2023/06/26 18:43:16;;;;;;;6.05;5.47;;;;;;;;;;6307734;22;20049;-81
2023/06/26 18:45:41;;;;;;;5.95;5.22;;;;;;;;;;6307667;22;20349;-81
2023/06/26 18:48:07;;;;;;;5.40;4.90;;;;;;;;;;6307642;22;20003;-80
2023/06/26 18:50:33;;;;;;;5.72;5.18;;;;;;;;;;6307500;22;20007;-80
2023/06/26 18:52:59;;;;;;;5.80;4.60;;;;;;;;;;6307460;22;20013;-81
2023/06/26 18:55:25;;;;;;;5.63;5.13;;;;;;;;;;6308114;22;20003;-81
2023/06/26 18:57:50;;;;;;;5.97;5.07;;;;;;;;;;6308470;22;20006;-80
2023/06/26 19:00:18;;;;;;;6.90;5.20;;;;;;;;;;6309436;22;20004;-80
2023/06/26 19:02:44;;;;;;;6.00;5.38;;;;;;;;;;6309573;22;20418;-81
2023/06/26 19:05:10;;;;;;;5.80;5.05;;;;;;;;;;6309227;22;20010;-81
2023/06/26 19:07:35;;;;;;;5.82;5.00;;;;;;;;;;6307655;22;20074;-82
2023/06/26 19:10:01;;;;;;;6.32;5.25;;;;;;;;;;6309422;22;19995;-81
2023/06/26 19:12:26;;;;;;;7.65;5.03;;;;;;;;;;6309413;22;20010;-81
2023/06/26 19:14:52;;;;;;;7.60;5.18;;;;;;;;;;6309608;22;20011;-82
2023/06/26 19:17:17;;;;;;;9.02;5.70;;;;;;;;;;6309102;22;20058;-82
2023/06/26 19:19:44;;;;;;;7.25;5.47;;;;;;;;;;6308885;22;20322;-82
2023/06/26 19:22:09;;;;;;;5.50;4.93;;;;;;;;;;6309541;22;20411;-82
2023/06/26 19:24:35;;;;;;;6.65;5.85;;;;;;;;;;6309280;22;20007;-82
2023/06/26 19:27:00;;;;;;;7.90;5.75;;;;;;;;;;6309024;22;20034;-82
2023/06/26 19:29:26;;;;;;;6.65;5.78;;;;;;;;;;6309536;22;20004;-82
2023/06/26 19:31:52;;;;;;;7.40;5.35;;;;;;;;;;6309291;22;20006;-83
2023/06/26 19:34:18;;;;;;;7.28;5.82;;;;;;;;;;6307611;22;20326;-82
2023/06/26 19:36:43;;;;;;;6.05;5.45;;;;;;;;;;6308883;22;20034;-82
2023/06/26 19:39:09;;;;;;;6.38;5.63;;;;;;;;;;6309072;22;20407;-83
2023/06/26 19:41:34;;;;;;;6.40;5.22;;;;;;;;;;6309670;22;20466;-81
2023/06/26 19:44:00;;;;;;;5.63;5.13;;;;;;;;;;6307504;22;20365;-81
2023/06/26 19:46:25;;;;;;;5.35;4.85;;;;;;;;;;6308830;22;20007;-81
2023/06/26 19:48:51;;;;;;;5.30;4.80;;;;;;;;;;6309004;22;20006;-81
2023/06/26 19:51:17;;;;;;;9.13;5.28;;;;;;;;;;6309228;22;20025;-82
2023/06/26 19:53:43;;;;;;;6.97;5.55;;;;;;;;;;6308644;22;20422;-81
2023/06/26 19:56:08;;;;;;;8.02;5.57;;;;;;;;;;6309288;22;20006;-82
2023/06/26 19:58:34;;;;;;;5.90;5.30;;;;;;;;;;6309493;22;20038;-86
2023/06/26 20:00:59;;;;;;;6.15;5.05;;;;;;;;;;6310845;22;20010;-85
2023/06/26 20:03:25;;;;;;;6.40;5.65;;;;;;;;;;6308301;22;19999;-87
2023/06/26 20:05:50;;;;;;;5.63;5.13;;;;;;;;;;6308731;22;20007;-86
2023/06/26 20:08:16;;;;;;;5.82;4.93;;;;;;;;;;6308678;22;20006;-81
2023/06/26 20:10:41;;;;;;;7.85;6.03;;;;;;;;;;6308518;22;20007;-82
2023/06/26 20:13:08;;;;;;;6.38;5.00;;;;;;;;;;6309017;22;20023;-83
2023/06/26 20:15:33;;;;;;;6.10;5.15;;;;;;;;;;6308634;22;20006;-83
2023/06/26 20:17:59;;;;;;;5.28;4.72;;;;;;;;;;6307388;22;20003;-88
2023/06/26 20:20:24;;;;;;;5.95;5.35;;;;;;;;;;6308415;22;20007;-86
2023/06/26 20:22:49;;;;;;;6.68;4.78;;;;;;;;;;6308418;22;20041;-85
2023/06/26 20:25:15;;;;;;;5.70;5.07;;;;;;;;;;6308237;22;20006;-83
2023/06/26 20:27:40;;;;;;;6.50;5.03;;;;;;;;;;6308512;22;20004;-84
2023/06/26 20:30:07;;;;;;;6.60;4.93;;;;;;;;;;6307662;22;19999;-81
2023/06/26 20:32:32;;;;;;;7.90;5.72;;;;;;;;;;6308517;22;19999;-81
2023/06/26 20:34:57;;;;;;;5.78;5.18;;;;;;;;;;6308244;22;20061;-82
2023/06/26 20:37:23;;;;;;;5.78;5.22;;;;;;;;;;6308056;22;20020;-89
2023/06/26 20:39:49;;;;;;;7.32;5.32;;;;;;;;;;6308388;22;20058;-80
2023/06/26 20:42:16;;;;;;;6.82;5.13;;;;;;;;;;6308472;22;20031;-80
2023/06/26 20:44:41;;;;;;;8.23;5.88;;;;;;;;;;6308470;22;20006;-86
2023/06/26 20:47:12;;;;;;;5.90;5.20;;;;;;;;;;6308243;22;20007;-81
2023/06/26 20:49:38;;;;;;;6.55;5.55;;;;;;;;;;6308368;22;20369;-81
2023/06/26 20:52:07;;;;;;;7.47;5.60;;;;;;;;;;6308208;22;19995;-81
2023/06/26 20:54:36;;;;;;;;;;;;;;;;;;6308711;22;20007;-81
2023/06/26 20:57:02;;;;;;;6.80;5.60;;;;;;;;;;6308218;22;19910;-81
2023/06/26 20:59:28;;;;;;;7.28;6.03;;;;;;;;;;6308443;22;20007;-80
2023/06/26 21:01:53;;;;;;;6.40;5.80;;;;;;;;;;6307893;22;20117;-78
2023/06/26 21:04:19;;;;;;;8.10;5.95;;;;;;;;;;6308075;22;19999;-79
2023/06/26 21:06:46;;;;;;;7.63;5.72;;;;;;;;;;6307998;22;20010;-80
2023/06/26 21:09:11;;;;;;;6.60;6.00;;;;;;;;;;6308421;22;20003;-80
2023/06/26 21:11:37;;;;;;;6.00;5.40;;;;;;;;;;6308401;22;20483;-79
2023/06/26 21:14:02;;;;;;;5.88;5.13;;;;;;;;;;6308122;22;19999;-79
2023/06/26 21:16:28;;;;;;;6.35;5.75;;;;;;;;;;6307855;22;20011;-79
2023/06/26 21:18:53;;;;;;;5.95;4.95;;;;;;;;;;6308154;22;20018;-79
2023/06/26 21:21:19;;;;;;;5.82;4.88;;;;;;;;;;6307988;22;20052;-80
2023/06/26 21:23:45;;;;;;;5.80;5.30;;;;;;;;;;6308246;22;20010;-79
2023/06/26 21:26:10;;;;;;;6.25;5.65;;;;;;;;;;6307921;22;20013;-79
2023/06/26 21:28:36;;;;;;;6.25;5.00;;;;;;;;;;6307864;22;20019;-80
2023/06/26 21:31:01;;;;;;;6.22;5.63;;;;;;;;;;6308082;22;20007;-79
2023/06/26 21:33:27;;;;;;;6.70;5.07;;;;;;;;;;6307879;22;20003;-79
2023/06/26 21:35:52;;;;;;;6.70;5.90;;;;;;;;;;6307912;22;20450;-79
2023/06/26 21:38:19;;;;;;;8.73;6.43;;;;;;;;;;6308045;22;20072;-80
2023/06/26 21:40:45;;;;;;;7.18;6.40;;;;;;;;;;6308004;22;20002;-79
2023/06/26 21:43:10;;;;;;;6.07;5.32;;;;;;;;;;6307801;22;20004;-79
2023/06/26 21:45:36;;;;;;;8.75;6.20;;;;;;;;;;6308235;22;20031;-81
2023/06/26 21:48:02;;;;;;;6.60;5.47;;;;;;;;;;6308089;22;20419;-83
